Terminal Aerodrome Forecast
Issued by NWS

Home | Current Version | Previous Version | Text Only | Print | Product List | Glossary On
Versions: 1 2 3 4 5 6 7 8 9 10 11 12 13
000
FTUS43 KGLD 262331
TAFMCK
TAF
KMCK 262331Z 2700/2724 36011KT P6SM SCT015 BKN035
     FM270200 35015G23KT P6SM -SHRA VCTS SCT015 BKN035CB
      TEMPO 2703/2707 -TSRA SCT008 BKN015CB
     FM270800 33015G24KT P6SM VCSH SCT015 OVC025
     FM271500 32025G36KT P6SM SCT025 BKN035=

USA.gov is the U.S. government's official web portal to all federal, state and local government web resources and services.